| time (UTC) | temp C | wind direction | speed KPH | gust KPH | rain 1hr cm | rain 24hr cm | rain mn cm | humidity % | barometer mb |
| 20260901201029 | 19 | 112 | 1.6 | 0.0 | 0.00 | 0.00 | 0.00 | 94 | 1014.4 |
| 20260901200533 | 19 | 111 | 3.2 | 0.0 | 0.00 | 0.00 | 0.00 | 94 | 1014.3 |
| 20260901200039 | 19 | 111 | 4.8 | 0.0 | 0.00 | 0.00 | 0.00 | 94 | 1014.3 |
| 20260901195530 | 19 | 105 | 4.8 | 0.0 | 0.00 | 0.00 | 0.00 | 94 | 1014.3 |
| 20260901195031 | 19 | 92 | 6.4 | 0.0 | 0.00 | 0.00 | 0.00 | 94 | 1014.4 |
| 20260901194529 | 19 | 78 | 6.4 | 0.0 | 0.00 | 0.00 | 0.00 | 95 | 1014.3 |
| 20260901194028 | 19 | 109 | 6.4 | 0.0 | 0.00 | 0.00 | 0.00 | 95 | 1014.3 |
| 20260901193528 | 19 | 126 | 6.4 | 0.0 | 0.00 | 0.00 | 0.00 | 94 | 1014.4 |
| 20260901193029 | 19 | 102 | 4.8 | 0.0 | 0.00 | 0.00 | 0.00 | 94 | 1014.3 |
| 20260901192527 | 19 | 104 | 4.8 | 0.0 | 0.00 | 0.00 | 0.00 | 94 | 1014.3 |
| 20260901192030 | 19 | 111 | 6.4 | 0.0 | 0.00 | 0.00 | 0.00 | 94 | 1014.0 |
| 20260901191528 | 19 | 113 | 6.4 | 0.0 | 0.00 | 0.00 | 0.00 | 94 | 1013.9 |
| 20260901191030 | 19 | 109 | 6.4 | 0.0 | 0.00 | 0.00 | 0.00 | 94 | 1013.9 |
| 20260901190527 | 19 | 133 | 6.4 | 0.0 | 0.00 | 0.00 | 0.00 | 94 | 1014.0 |
| 20260901190027 | 19 | 107 | 8.0 | 0.0 | 0.00 | 0.00 | 0.00 | 94 | 1014.0 |
| 20260901185527 | 19 | 117 | 8.0 | 0.0 | 0.00 | 0.00 | 0.00 | 94 | 1014.0 |
| 20260901185026 | 19 | 107 | 9.7 | 0.0 | 0.00 | 0.00 | 0.00 | 95 | 1014.0 |
| 20260901184532 | 19 | 101 | 9.7 | 0.0 | 0.00 | 0.00 | 0.00 | 95 | 1014.0 |
| 20260901184026 | 19 | 98 | 9.7 | 0.0 | 0.00 | 0.00 | 0.00 | 95 | 1014.0 |
| 20260901183525 | 19 | 113 | 8.0 | 0.0 | 0.00 | 0.00 | 0.00 | 95 | 1014.0 |
| 20260901183025 | 19 | 109 | 6.4 | 0.0 | 0.00 | 0.00 | 0.00 | 95 | 1014.0 |
| 20260901182525 | 19 | 109 | 6.4 | 0.0 | 0.00 | 0.00 | 0.00 | 96 | 1014.0 |
| 20260901182025 | 19 | 108 | 8.0 | 0.0 | 0.00 | 0.00 | 0.00 | 96 | 1013.9 |
| 20260901181524 | 19 | 115 | 8.0 | 0.0 | 0.00 | 0.00 | 0.00 | 96 | 1014.0 |
| 20260901181024 | 19 | 127 | 8.0 | 0.0 | 0.00 | 0.00 | 0.00 | 96 | 1013.9 |
| 20260901180524 | 19 | 132 | 8.0 | 0.0 | 0.00 | 0.00 | 0.00 | 96 | 1014.0 |
| 20260901180023 | 19 | 120 | 8.0 | 0.0 | 0.00 | 0.00 | 0.00 | 96 | 1013.9 |
| 20260901175523 | 19 | 119 | 6.4 | 0.0 | 0.00 | 0.00 | 0.00 | 96 | 1013.9 |
| 20260901175022 | 19 | 119 | 8.0 | 0.0 | 0.00 | 0.00 | 0.00 | 96 | 1013.8 |
| 20260901174523 | 19 | 110 | 9.7 | 0.0 | 0.00 | 0.00 | 0.00 | 95 | 1013.7 |
| 20260901174024 | 19 | 117 | 8.0 | 0.0 | 0.00 | 0.00 | 0.00 | 96 | 1013.7 |
| 20260901173521 | 19 | 116 | 6.4 | 0.0 | 0.00 | 0.00 | 0.00 | 96 | 1013.9 |
| 20260901173021 | 19 | 104 | 6.4 | 0.0 | 0.00 | 0.00 | 0.00 | 96 | 1013.8 |
| 20260901172521 | 19 | 82 | 6.4 | 0.0 | 0.00 | 0.00 | 0.00 | 96 | 1013.9 |
| 20260901172023 | 19 | 83 | 6.4 | 0.0 | 0.00 | 0.00 | 0.00 | 96 | 1013.8 |
| 20260901171524 | 19 | 106 | 8.0 | 0.0 | 0.00 | 0.00 | 0.00 | 96 | 1013.8 |
| 20260901171021 | 19 | 110 | 8.0 | 0.0 | 0.00 | 0.00 | 0.00 | 96 | 1013.7 |
| 20260901170521 | 19 | 109 | 8.0 | 0.0 | 0.00 | 0.00 | 0.00 | 96 | 1013.7 |
| 20260901170020 | 19 | 107 | 6.4 | 0.0 | 0.00 | 0.00 | 0.00 | 96 | 1013.7 |
| 20260901165521 | 19 | 109 | 4.8 | 0.0 | 0.00 | 0.00 | 0.00 | 96 | 1013.6 |
| 20260901165022 | 19 | 88 | 4.8 | 0.0 | 0.00 | 0.00 | 0.00 | 96 | 1013.6 |
| 20260901164520 | 19 | 122 | 4.8 | 0.0 | 0.00 | 0.00 | 0.00 | 97 | 1013.7 |
| 20260901164020 | 19 | 105 | 4.8 | 0.0 | 0.00 | 0.00 | 0.00 | 96 | 1013.7 |
| 20260901163518 | 18 | 92 | 1.6 | 0.0 | 0.00 | 0.00 | 0.00 | 96 | 1013.9 |
| 20260901163018 | 18 | 102 | 1.6 | 0.0 | 0.00 | 0.00 | 0.00 | 96 | 1014.0 |
| 20260901162518 | 18 | 102 | 1.6 | 0.0 | 0.00 | 0.00 | 0.00 | 96 | 1014.1 |
| 20260901162020 | 18 | 102 | 1.6 | 0.0 | 0.00 | 0.00 | 0.00 | 96 | 1014.0 |
| 20260901161517 | 18 | 93 | 3.2 | 0.0 | 0.00 | 0.00 | 0.00 | 96 | 1014.0 |
| 20260901161017 | 18 | 68 | 3.2 | 0.0 | 0.00 | 0.00 | 0.00 | 96 | 1014.1 |
| 20260901160515 | 18 | 64 | 1.6 | 0.0 | 0.00 | 0.00 | 0.00 | 96 | 1014.1 |
| 20260901160021 | 18 | 98 | 0.0 | 0.0 | 0.00 | 0.00 | 0.00 | 96 | 1014.0 |
| 20260901155516 | 18 | 98 | 0.0 | 0.0 | 0.00 | 0.00 | 0.00 | 96 | 1014.2 |
| 20260901155016 | 18 | 98 | 1.6 | 0.0 | 0.00 | 0.00 | 0.00 | 96 | 1014.0 |
| 20260901154518 | 18 | 98 | 3.2 | 0.0 | 0.00 | 0.00 | 0.00 | 96 | 1014.1 |
| 20260901154017 | 18 | 98 | 3.2 | 0.0 | 0.00 | 0.00 | 0.00 | 96 | 1014.0 |
| 20260901153518 | 18 | 100 | 3.2 | 0.0 | 0.00 | 0.00 | 0.00 | 96 | 1014.0 |
| 20260901153020 | 18 | 86 | 1.6 | 0.0 | 0.00 | 0.00 | 0.00 | 96 | 1014.1 |
| 20260901152514 | 18 | 238 | 1.6 | 0.0 | 0.00 | 0.00 | 0.00 | 95 | 1014.0 |
| 20260901152015 | 18 | 238 | 1.6 | 0.0 | 0.00 | 0.00 | 0.00 | 96 | 1013.9 |
| 20260901151516 | 18 | 225 | 1.6 | 0.0 | 0.00 | 0.00 | 0.00 | 96 | 1013.9 |
| 20260901151014 | 18 | 224 | 1.6 | 0.0 | 0.00 | 0.00 | 0.00 | 96 | 1013.8 |
| 20260901150513 | 18 | 222 | 1.6 | 0.0 | 0.00 | 0.00 | 0.00 | 96 | 1013.5 |
| 20260901150013 | 18 | 222 | 3.2 | 0.0 | 0.00 | 0.00 | 0.00 | 96 | 1013.5 |
| 20260901145515 | 18 | 215 | 3.2 | 0.0 | 0.00 | 0.00 | 0.00 | 96 | 1013.3 |
| 20260901145013 | 18 | 190 | 3.2 | 0.0 | 0.00 | 0.00 | 0.00 | 96 | 1013.0 |
| 20260901144513 | 18 | 219 | 1.6 | 0.0 | 0.00 | 0.00 | 0.00 | 96 | 1012.9 |
| 20260901144012 | 18 | 142 | 4.8 | 0.0 | 0.00 | 0.00 | 0.00 | 96 | 1013.0 |
| 20260901143511 | 18 | 171 | 8.0 | 0.0 | 0.00 | 0.00 | 0.00 | 96 | 1013.3 |
| 20260901143011 | 18 | 135 | 12.9 | 0.0 | 0.00 | 0.00 | 0.00 | 96 | 1013.1 |
| 20260901142510 | 18 | 327 | 9.7 | 0.0 | 0.00 | 0.00 | 0.00 | 96 | 1014.9 |
| 20260901142013 | 18 | 331 | 3.2 | 0.0 | 0.00 | 0.00 | 0.00 | 96 | 1014.8 |
| 20260901141509 | 18 | 117 | 0.0 | 0.0 | 0.00 | 0.00 | 0.00 | 96 | 1014.0 |
| 20260901141012 | 18 | 117 | 1.6 | 0.0 | 0.00 | 0.00 | 0.00 | 96 | 1013.8 |
| 20260901140509 | 18 | 142 | 0.0 | 0.0 | 0.00 | 0.00 | 0.00 | 96 | 1013.9 |
| 20260901140014 | 18 | 143 | 0.0 | 0.0 | 0.00 | 0.00 | 0.00 | 96 | 1013.9 |
| 20260901135513 | 18 | 142 | 0.0 | 0.0 | 0.00 | 0.00 | 0.00 | 96 | 1013.8 |
| 20260901135009 | 18 | 142 | 1.6 | 0.0 | 0.00 | 0.00 | 0.00 | 96 | 1013.7 |
| 20260901134509 | 18 | 142 | 1.6 | 0.0 | 0.00 | 0.00 | 0.00 | 96 | 1013.7 |
| 20260901134008 | 18 | 144 | 0.0 | 0.0 | 0.00 | 0.00 | 0.00 | 96 | 1013.8 |
| 20260901133507 | 18 | 144 | 0.0 | 0.0 | 0.00 | 0.00 | 0.00 | 96 | 1013.9 |
| 20260901133008 | 18 | 142 | 0.0 | 0.0 | 0.00 | 0.00 | 0.00 | 96 | 1013.8 |
| 20260901132508 | 18 | 142 | 0.0 | 0.0 | 0.00 | 0.00 | 0.00 | 96 | 1013.7 |
| 20260901132006 | 18 | 142 | 0.0 | 0.0 | 0.00 | 0.00 | 0.00 | 96 | 1013.8 |
| 20260901131520 | 18 | 142 | 0.0 | 0.0 | 0.00 | 0.00 | 0.00 | 96 | 1013.9 |
| 20260901131010 | 18 | 142 | 0.0 | 0.0 | 0.00 | 0.00 | 0.00 | 96 | 1014.0 |
| 20260901130507 | 18 | 142 | 0.0 | 0.0 | 0.00 | 0.00 | 0.00 | 97 | 1014.0 |
| 20260901130007 | 18 | 142 | 0.0 | 0.0 | 0.00 | 0.00 | 0.00 | 97 | 1014.1 |
| 20260901125507 | 18 | 142 | 0.0 | 0.0 | 0.00 | 0.00 | 0.00 | 96 | 1014.3 |
| 20260901125006 | 18 | 142 | 0.0 | 0.0 | 0.00 | 0.00 | 0.00 | 96 | 1014.3 |
| 20260901124506 | 18 | 142 | 0.0 | 0.0 | 0.00 | 0.00 | 0.00 | 96 | 1014.4 |
| 20260901124006 | 18 | 142 | 0.0 | 0.0 | 0.00 | 0.00 | 0.00 | 96 | 1014.3 |
| 20260901123505 | 18 | 142 | 0.0 | 0.0 | 0.00 | 0.00 | 0.00 | 96 | 1014.4 |
| 20260901123005 | 18 | 142 | 0.0 | 0.0 | 0.00 | 0.00 | 0.00 | 96 | 1014.4 |
| 20260901122505 | 18 | 142 | 1.6 | 0.0 | 0.00 | 0.00 | 0.00 | 96 | 1014.4 |
| 20260901122004 | 18 | 142 | 3.2 | 0.0 | 0.00 | 0.00 | 0.00 | 96 | 1014.5 |
| 20260901121504 | 18 | 139 | 4.8 | 0.0 | 0.00 | 0.00 | 0.00 | 96 | 1014.4 |
| 20260901121005 | 18 | 101 | 6.4 | 0.0 | 0.00 | 0.00 | 0.00 | 96 | 1014.4 |
| 20260901120504 | 18 | 71 | 6.4 | 0.0 | 0.00 | 0.00 | 0.00 | 96 | 1014.5 |
| 20260901120004 | 18 | 70 | 8.0 | 0.0 | 0.00 | 0.00 | 0.00 | 96 | 1014.7 |
| 20260901115503 | 18 | 106 | 8.0 | 0.0 | 0.00 | 0.00 | 0.00 | 96 | 1014.5 |
| 20260901115003 | 18 | 56 | 8.0 | 0.0 | 0.00 | 0.00 | 0.00 | 96 | 1014.9 |
| 20260901114509 | 18 | 51 | 6.4 | 0.0 | 0.00 | 0.00 | 0.00 | 96 | 1014.8 |
| 20260901114003 | 18 | 50 | 3.2 | 0.0 | 0.00 | 0.00 | 0.00 | 96 | 1014.7 |
| 20260901113503 | 18 | 67 | 3.2 | 0.0 | 0.00 | 0.00 | 0.00 | 96 | 1014.5 |
| 20260901113003 | 18 | 86 | 3.2 | 0.0 | 0.00 | 0.00 | 0.00 | 96 | 1014.4 |
| 20260901112502 | 18 | 121 | 4.8 | 0.0 | 0.00 | 0.00 | 0.00 | 96 | 1014.5 |
| 20260901112002 | 18 | 122 | 6.4 | 0.0 | 0.00 | 0.00 | 0.00 | 96 | 1014.4 |
| 20260901111502 | 18 | 132 | 4.8 | 0.0 | 0.00 | 0.00 | 0.00 | 96 | 1014.3 |
| 20260901111001 | 18 | 31 | 3.2 | 0.0 | 0.00 | 0.00 | 0.00 | 96 | 1014.5 |
| 20260901110503 | 18 | 99 | 1.6 | 0.0 | 0.00 | 0.00 | 0.00 | 96 | 1014.5 |
| 20260901110002 | 18 | 109 | 3.2 | 0.0 | 0.00 | 0.00 | 0.00 | 96 | 1014.7 |
| 20260901105505 | 18 | 110 | 3.2 | 0.0 | 0.00 | 0.00 | 0.00 | 96 | 1014.4 |
| 20260901105004 | 18 | 321 | 1.6 | 0.0 | 0.00 | 0.00 | 0.00 | 96 | 1014.5 |
| 20260901104502 | 18 | 294 | 3.2 | 0.0 | 0.00 | 0.00 | 0.00 | 96 | 1014.5 |
| 20260901104001 | 18 | 286 | 3.2 | 0.0 | 0.00 | 0.00 | 0.00 | 96 | 1014.5 |
| 20260901103602 | 18 | 282 | 1.6 | 0.0 | 0.00 | 0.00 | 0.00 | 95 | 1014.4 |
| 20260901103100 | 18 | 150 | 0.0 | 0.0 | 0.00 | 0.00 | 0.00 | 95 | 1013.9 |
| 20260901102600 | 18 | 94 | 0.0 | 0.0 | 0.00 | 0.00 | 0.00 | 95 | 1014.2 |
| 20260901102101 | 18 | 81 | 1.6 | 0.0 | 0.00 | 0.00 | 0.00 | 95 | 1014.3 |
| 20260901101600 | 18 | 81 | 3.2 | 0.0 | 0.00 | 0.00 | 0.00 | 95 | 1014.3 |
| 20260901101059 | 18 | 96 | 4.8 | 0.0 | 0.00 | 0.00 | 0.00 | 95 | 1014.3 |
| 20260901100559 | 18 | 110 | 4.8 | 0.0 | 0.00 | 0.00 | 0.00 | 96 | 1014.1 |
| 20260901100101 | 18 | 27 | 6.4 | 0.0 | 0.00 | 0.00 | 0.00 | 95 | 1014.4 |
| 20260901095559 | 18 | 96 | 4.8 | 0.0 | 0.00 | 0.00 | 0.00 | 96 | 1014.0 |
| 20260901095059 | 18 | 15 | 1.6 | 0.0 | 0.00 | 0.00 | 0.00 | 95 | 1014.6 |
| 20260901094559 | 18 | 312 | 3.2 | 0.0 | 0.00 | 0.00 | 0.00 | 95 | 1014.9 |
| 20260901094058 | 18 | 108 | 4.8 | 0.0 | 0.00 | 0.00 | 0.00 | 95 | 1014.3 |
| 20260901093557 | 18 | 56 | 6.4 | 0.0 | 0.00 | 0.00 | 0.00 | 95 | 1014.0 |
| 20260901093101 | 18 | 355 | 6.4 | 0.0 | 0.00 | 0.00 | 0.00 | 96 | 1014.4 |
| 20260901092556 | 18 | 22 | 4.8 | 0.0 | 0.00 | 0.00 | 0.00 | 95 | 1014.0 |
| 20260901092056 | 18 | 76 | 1.6 | 0.0 | 0.00 | 0.00 | 0.00 | 94 | 1013.7 |
| 20260901091605 | 18 | 117 | 0.0 | 0.0 | 0.00 | 0.00 | 0.00 | 94 | 1013.7 |
| 20260901091055 | 18 | 122 | 1.6 | 0.0 | 0.00 | 0.00 | 0.00 | 94 | 1013.7 |
| 20260901090555 | 18 | 122 | 3.2 | 0.0 | 0.00 | 0.00 | 0.00 | 94 | 1013.7 |
| 20260901090057 | 18 | 121 | 4.8 | 0.0 | 0.00 | 0.00 | 0.00 | 94 | 1013.7 |
| 20260901085555 | 18 | 123 | 4.8 | 0.0 | 0.00 | 0.00 | 0.00 | 94 | 1013.5 |
| 20260901085054 | 18 | 100 | 3.2 | 0.0 | 0.00 | 0.00 | 0.00 | 94 | 1013.7 |
| 20260901084558 | 18 | 117 | 3.2 | 0.0 | 0.00 | 0.00 | 0.00 | 94 | 1013.7 |
| 20260901084054 | 18 | 117 | 3.2 | 0.0 | 0.00 | 0.00 | 0.00 | 94 | 1013.7 |
| 20260901083553 | 18 | 118 | 3.2 | 0.0 | 0.00 | 0.00 | 0.00 | 94 | 1013.8 |
| 20260901083052 | 18 | 119 | 3.2 | 0.0 | 0.00 | 0.00 | 0.00 | 94 | 1013.8 |
| 20260901082551 | 18 | 119 | 1.6 | 0.0 | 0.00 | 0.00 | 0.00 | 94 | 1013.9 |
| 20260901082050 | 18 | 119 | 0.0 | 0.0 | 0.00 | 0.00 | 0.00 | 94 | 1014.0 |
| 20260901081551 | 18 | 119 | 0.0 | 0.0 | 0.00 | 0.00 | 0.00 | 94 | 1014.1 |
| 20260901081051 | 18 | 119 | 0.0 | 0.0 | 0.00 | 0.00 | 0.00 | 93 | 1014.0 |
| 20260901080553 | 18 | 119 | 1.6 | 0.0 | 0.00 | 0.00 | 0.00 | 93 | 1014.1 |
| 20260901080050 | 18 | 119 | 4.8 | 0.0 | 0.00 | 0.00 | 0.00 | 93 | 1014.0 |
| 20260901075550 | 18 | 119 | 4.8 | 0.0 | 0.00 | 0.00 | 0.00 | 93 | 1014.1 |
| 20260901075048 | 18 | 121 | 4.8 | 0.0 | 0.00 | 0.00 | 0.00 | 93 | 1014.2 |
| 20260901074548 | 18 | 102 | 1.6 | 0.0 | 0.00 | 0.00 | 0.00 | 94 | 1014.2 |
| 20260901074049 | 17 | 80 | 0.0 | 0.0 | 0.00 | 0.00 | 0.00 | 94 | 1014.5 |
| 20260901073547 | 17 | 78 | 0.0 | 0.0 | 0.00 | 0.00 | 0.00 | 94 | 1014.6 |
| 20260901073046 | 17 | 77 | 1.6 | 0.0 | 0.00 | 0.00 | 0.00 | 94 | 1014.7 |
| 20260901072547 | 17 | 207 | 1.6 | 0.0 | 0.00 | 0.00 | 0.00 | 94 | 1014.7 |
| 20260901072049 | 17 | 207 | 1.6 | 0.0 | 0.00 | 0.00 | 0.00 | 94 | 1014.6 |
| 20260901071557 | 17 | 252 | 1.6 | 0.0 | 0.00 | 0.00 | 0.00 | 94 | 1014.6 |
| 20260901071050 | 17 | 252 | 1.6 | 0.0 | 0.00 | 0.00 | 0.00 | 94 | 1014.5 |
| 20260901070546 | 17 | 256 | 1.6 | 0.0 | 0.00 | 0.00 | 0.00 | 94 | 1014.8 |
| 20260901070046 | 17 | 257 | 1.6 | 0.0 | 0.00 | 0.00 | 0.00 | 94 | 1014.8 |
| 20260901065546 | 17 | 128 | 0.0 | 0.0 | 0.00 | 0.00 | 0.00 | 94 | 1014.7 |
| 20260901065046 | 17 | 128 | 0.0 | 0.0 | 0.00 | 0.00 | 0.00 | 94 | 1014.5 |
| 20260901064546 | 17 | 128 | 0.0 | 0.0 | 0.00 | 0.00 | 0.00 | 94 | 1014.5 |
| 20260901064045 | 17 | 128 | 0.0 | 0.0 | 0.00 | 0.00 | 0.00 | 94 | 1014.5 |
| 20260901063544 | 17 | 128 | 1.6 | 0.0 | 0.00 | 0.00 | 0.00 | 94 | 1014.6 |
| 20260901063043 | 17 | 128 | 3.2 | 0.0 | 0.00 | 0.00 | 0.00 | 94 | 1014.8 |
| 20260901062543 | 17 | 128 | 3.2 | 0.0 | 0.00 | 0.00 | 0.00 | 94 | 1014.9 |
| 20260901062045 | 17 | 128 | 4.8 | 0.0 | 0.00 | 0.00 | 0.00 | 94 | 1014.9 |
| 20260901061542 | 17 | 128 | 4.8 | 0.0 | 0.00 | 0.00 | 0.00 | 94 | 1014.9 |
| 20260901061042 | 17 | 128 | 4.8 | 0.0 | 0.00 | 0.00 | 0.00 | 94 | 1014.9 |
| 20260901060544 | 17 | 128 | 4.8 | 0.0 | 0.00 | 0.00 | 0.00 | 94 | 1015.0 |
| 20260901060041 | 17 | 128 | 4.8 | 0.0 | 0.00 | 0.00 | 0.00 | 94 | 1015.1 |
| 20260901055540 | 18 | 130 | 4.8 | 0.0 | 0.00 | 0.00 | 0.00 | 94 | 1015.3 |
| 20260901055039 | 17 | 130 | 6.4 | 0.0 | 0.00 | 0.00 | 0.00 | 94 | 1015.4 |
| 20260901054539 | 18 | 121 | 3.2 | 0.0 | 0.00 | 0.00 | 0.00 | 94 | 1015.5 |
| 20260901054040 | 17 | 127 | 0.0 | 0.0 | 0.00 | 0.00 | 0.00 | 94 | 1015.4 |
| 20260901053540 | 17 | 134 | 0.0 | 0.0 | 0.00 | 0.00 | 0.00 | 94 | 1015.5 |
| 20260901053043 | 17 | 140 | 0.0 | 0.0 | 0.00 | 0.00 | 0.00 | 94 | 1015.7 |
| 20260901052538 | 17 | 140 | 0.0 | 0.0 | 0.00 | 0.00 | 0.00 | 94 | 1015.7 |
| 20260901052038 | 17 | 140 | 0.0 | 0.0 | 0.00 | 0.00 | 0.00 | 94 | 1015.7 |
| 20260901051538 | 17 | 140 | 1.6 | 0.0 | 0.00 | 0.00 | 0.00 | 94 | 1015.7 |
| 20260901051038 | 17 | 140 | 3.2 | 0.0 | 0.00 | 0.00 | 0.00 | 94 | 1015.7 |
| 20260901050538 | 17 | 142 | 4.8 | 0.0 | 0.00 | 0.00 | 0.00 | 94 | 1015.5 |
| 20260901050038 | 17 | 143 | 6.4 | 0.0 | 0.00 | 0.00 | 0.00 | 94 | 1015.6 |
| 20260901045537 | 17 | 136 | 8.0 | 0.0 | 0.00 | 0.00 | 0.00 | 93 | 1015.3 |
| 20260901045036 | 17 | 126 | 4.8 | 0.0 | 0.00 | 0.00 | 0.00 | 93 | 1015.7 |
| 20260901044543 | 17 | 88 | 4.8 | 0.0 | 0.00 | 0.00 | 0.00 | 94 | 1016.1 |
| 20260901044036 | 17 | 92 | 3.2 | 0.0 | 0.00 | 0.00 | 0.00 | 94 | 1016.1 |
| 20260901043535 | 17 | 136 | 3.2 | 0.0 | 0.00 | 0.00 | 0.00 | 94 | 1016.1 |
| 20260901043033 | 17 | 137 | 3.2 | 0.0 | 0.00 | 0.00 | 0.00 | 94 | 1015.8 |
| 20260901042537 | 17 | 137 | 1.6 | 0.0 | 0.00 | 0.00 | 0.00 | 94 | 1015.7 |
| 20260901042033 | 17 | 138 | 3.2 | 0.0 | 0.00 | 0.00 | 0.00 | 94 | 1015.7 |
| 20260901041533 | 17 | 138 | 6.4 | 0.0 | 0.00 | 0.00 | 0.00 | 94 | 1015.6 |
| 20260901041035 | 17 | 138 | 4.8 | 0.0 | 0.00 | 0.00 | 0.00 | 94 | 1015.6 |
| 20260901040533 | 17 | 137 | 3.2 | 0.0 | 0.00 | 0.00 | 0.00 | 94 | 1015.7 |
| 20260901040031 | 17 | 137 | 3.2 | 0.0 | 0.00 | 0.00 | 0.00 | 93 | 1015.8 |
| 20260901035533 | 17 | 136 | 3.2 | 0.0 | 0.00 | 0.00 | 0.00 | 94 | 1015.8 |
| 20260901035031 | 17 | 135 | 3.2 | 0.0 | 0.00 | 0.00 | 0.00 | 93 | 1015.8 |
| 20260901034533 | 17 | 135 | 1.6 | 0.0 | 0.00 | 0.00 | 0.00 | 93 | 1015.8 |
| 20260901034034 | 17 | 135 | 1.6 | 0.0 | 0.00 | 0.00 | 0.00 | 93 | 1015.9 |
| 20260901033530 | 17 | 135 | 1.6 | 0.0 | 0.00 | 0.00 | 0.00 | 93 | 1015.8 |
| 20260901033031 | 17 | 135 | 1.6 | 0.0 | 0.00 | 0.00 | 0.00 | 93 | 1015.9 |
| 20260901032530 | 18 | 135 | 3.2 | 0.0 | 0.00 | 0.00 | 0.00 | 93 | 1016.0 |
| 20260901032033 | 18 | 135 | 3.2 | 0.0 | 0.00 | 0.00 | 0.00 | 93 | 1015.8 |
| 20260901031532 | 18 | 134 | 3.2 | 0.0 | 0.00 | 0.00 | 0.00 | 93 | 1016.0 |
| 20260901031029 | 18 | 132 | 3.2 | 0.0 | 0.00 | 0.00 | 0.00 | 93 | 1016.1 |
| 20260901030529 | 18 | 133 | 4.8 | 0.0 | 0.00 | 0.00 | 0.00 | 93 | 1016.1 |
| 20260901030029 | 18 | 134 | 6.4 | 0.0 | 0.00 | 0.00 | 0.00 | 93 | 1015.9 |
| 20260901025528 | 18 | 134 | 6.4 | 0.0 | 0.00 | 0.00 | 0.00 | 93 | 1016.0 |
| 20260901025029 | 18 | 153 | 6.4 | 0.0 | 0.00 | 0.00 | 0.00 | 94 | 1016.0 |
| 20260901024528 | 18 | 134 | 6.4 | 0.0 | 0.00 | 0.00 | 0.00 | 94 | 1016.1 |
| 20260901024029 | 18 | 134 | 4.8 | 0.0 | 0.00 | 0.00 | 0.00 | 94 | 1016.2 |
| 20260901023528 | 18 | 140 | 1.6 | 0.0 | 0.00 | 0.00 | 0.00 | 93 | 1016.2 |
| 20260901023038 | 18 | 140 | 0.0 | 0.0 | 0.00 | 0.00 | 0.00 | 93 | 1016.5 |
| 20260901022528 | 18 | 141 | 0.0 | 0.0 | 0.00 | 0.00 | 0.00 | 93 | 1016.5 |
| 20260901022027 | 18 | 141 | 1.6 | 0.0 | 0.00 | 0.00 | 0.00 | 93 | 1016.5 |
| 20260901021531 | 18 | 141 | 3.2 | 0.0 | 0.00 | 0.00 | 0.00 | 93 | 1016.5 |
| 20260901021027 | 18 | 141 | 3.2 | 0.0 | 0.00 | 0.00 | 0.00 | 93 | 1016.4 |
| 20260901020530 | 18 | 141 | 1.6 | 0.0 | 0.00 | 0.00 | 0.00 | 94 | 1016.5 |
| 20260901020026 | 18 | 141 | 0.0 | 0.0 | 0.00 | 0.00 | 0.00 | 93 | 1016.4 |
| 20260901015526 | 18 | 142 | 0.0 | 0.0 | 0.00 | 0.00 | 0.00 | 94 | 1016.5 |
| 20260901015026 | 18 | 142 | 0.0 | 0.0 | 0.00 | 0.00 | 0.00 | 93 | 1016.4 |
| 20260901014526 | 18 | 142 | 0.0 | 0.0 | 0.00 | 0.00 | 0.00 | 93 | 1016.5 |
| 20260901014026 | 18 | 142 | 0.0 | 0.0 | 0.00 | 0.00 | 0.00 | 94 | 1016.3 |
| 20260901013525 | 18 | 142 | 0.0 | 0.0 | 0.00 | 0.00 | 0.00 | 93 | 1016.3 |
| 20260901013028 | 18 | 142 | 0.0 | 0.0 | 0.00 | 0.00 | 0.00 | 94 | 1016.2 |
| 20260901012525 | 18 | 142 | 1.6 | 0.0 | 0.00 | 0.00 | 0.00 | 94 | 1016.3 |
| 20260901012025 | 18 | 142 | 3.2 | 0.0 | 0.00 | 0.00 | 0.00 | 94 | 1016.3 |
| 20260901011525 | 18 | 142 | 3.2 | 0.0 | 0.00 | 0.00 | 0.00 | 94 | 1016.2 |
| 20260901011025 | 18 | 143 | 3.2 | 0.0 | 0.00 | 0.00 | 0.00 | 93 | 1016.2 |
| 20260901010525 | 18 | 144 | 3.2 | 0.0 | 0.00 | 0.00 | 0.00 | 94 | 1016.1 |
| 20260901010025 | 18 | 144 | 4.8 | 0.0 | 0.00 | 0.00 | 0.00 | 94 | 1016.1 |
| 20260901005525 | 18 | 136 | 4.8 | 0.0 | 0.00 | 0.00 | 0.00 | 94 | 1016.1 |
| 20260901005026 | 18 | 143 | 4.8 | 0.0 | 0.00 | 0.00 | 0.00 | 93 | 1016.0 |
| 20260901004524 | 18 | 153 | 4.8 | 0.0 | 0.00 | 0.00 | 0.00 | 93 | 1016.0 |
| 20260901004023 | 18 | 162 | 4.8 | 0.0 | 0.00 | 0.00 | 0.00 | 93 | 1016.2 |
| 20260901003523 | 18 | 173 | 4.8 | 0.0 | 0.00 | 0.00 | 0.00 | 93 | 1016.2 |
| 20260901003024 | 18 | 157 | 4.8 | 0.0 | 0.00 | 0.00 | 0.00 | 93 | 1016.3 |
| 20260901002523 | 18 | 159 | 3.2 | 0.0 | 0.00 | 0.00 | 0.00 | 93 | 1016.1 |
| 20260901002024 | 18 | 155 | 1.6 | 0.0 | 0.00 | 0.00 | 0.00 | 93 | 1016.2 |
| 20260901001524 | 18 | 147 | 0.0 | 0.0 | 0.00 | 0.00 | 0.00 | 93 | 1016.2 |
| 20260901001022 | 18 | 140 | 0.0 | 0.0 | 0.00 | 0.00 | 0.00 | 93 | 1016.2 |
| 20260901000521 | 18 | 139 | 0.0 | 0.0 | 0.00 | 0.00 | 0.00 | 93 | 1016.2 |
| 20260901000021 | 18 | 139 | 1.6 | 0.0 | 0.00 | 0.00 | 0.00 | 92 | 1016.4 |
| 20260831235525 | 18 | 139 | 4.8 | 0.0 | 0.00 | 0.00 | 0.00 | 92 | 1016.4 |
| 20260831235021 | 18 | 134 | 6.4 | 0.0 | 0.00 | 0.00 | 0.00 | 92 | 1016.4 |
| 20260831234521 | 18 | 132 | 3.2 | 0.0 | 0.00 | 0.00 | 0.00 | 92 | 1016.4 |
| 20260831234021 | 18 | 130 | 3.2 | 0.0 | 0.00 | 0.00 | 0.00 | 92 | 1016.5 |
| 20260831233524 | 18 | 129 | 4.8 | 0.0 | 0.00 | 0.00 | 0.00 | 92 | 1016.4 |
| 20260831233020 | 18 | 127 | 6.4 | 0.0 | 0.00 | 0.00 | 0.00 | 92 | 1016.4 |
| 20260831232520 | 18 | 127 | 6.4 | 0.0 | 0.00 | 0.00 | 0.00 | 92 | 1016.4 |
| 20260831232019 | 18 | 130 | 6.4 | 0.0 | 0.00 | 0.00 | 0.00 | 92 | 1016.5 |
| 20260831231528 | 18 | 133 | 4.8 | 0.0 | 0.00 | 0.00 | 0.00 | 92 | 1016.5 |
| 20260831231020 | 18 | 144 | 4.8 | 0.0 | 0.00 | 0.00 | 0.00 | 92 | 1016.5 |
| 20260831230519 | 18 | 146 | 6.4 | 0.0 | 0.00 | 0.00 | 0.00 | 92 | 1016.5 |
| 20260831230018 | 18 | 133 | 8.0 | 0.0 | 0.00 | 0.00 | 0.00 | 91 | 1016.5 |
| 20260831225518 | 18 | 138 | 8.0 | 0.0 | 0.00 | 0.00 | 0.00 | 91 | 1016.5 |
| 20260831225018 | 18 | 140 | 6.4 | 0.0 | 0.00 | 0.00 | 0.00 | 91 | 1016.5 |
| 20260831224517 | 18 | 130 | 6.4 | 0.0 | 0.00 | 0.00 | 0.00 | 91 | 1016.6 |
| 20260831224018 | 18 | 140 | 6.4 | 0.0 | 0.00 | 0.00 | 0.00 | 91 | 1016.7 |
| 20260831223517 | 18 | 136 | 8.0 | 0.0 | 0.00 | 0.00 | 0.00 | 91 | 1016.6 |
| 20260831223016 | 18 | 126 | 8.0 | 0.0 | 0.00 | 0.00 | 0.00 | 91 | 1016.7 |
| 20260831222517 | 18 | 125 | 8.0 | 0.0 | 0.00 | 0.00 | 0.00 | 91 | 1016.8 |
| 20260831222015 | 18 | 124 | 8.0 | 0.0 | 0.00 | 0.00 | 0.00 | 91 | 1016.8 |
| 20260831221516 | 18 | 115 | 8.0 | 0.0 | 0.00 | 0.00 | 0.00 | 91 | 1016.8 |
| 20260831221015 | 18 | 121 | 4.8 | 0.0 | 0.00 | 0.00 | 0.00 | 90 | 1016.9 |
| 20260831220517 | 18 | 138 | 3.2 | 0.0 | 0.00 | 0.00 | 0.00 | 90 | 1017.0 |
| 20260831220016 | 18 | 139 | 6.4 | 0.0 | 0.00 | 0.00 | 0.00 | 90 | 1017.0 |
| 20260831215516 | 18 | 129 | 6.4 | 0.0 | 0.00 | 0.00 | 0.00 | 90 | 1017.0 |
| 20260831215016 | 18 | 96 | 6.4 | 0.0 | 0.00 | 0.00 | 0.00 | 89 | 1017.0 |
| 20260831214515 | 19 | 106 | 3.2 | 0.0 | 0.00 | 0.00 | 0.00 | 89 | 1017.2 |
| 20260831214017 | 19 | 134 | 1.6 | 0.0 | 0.00 | 0.00 | 0.00 | 88 | 1017.2 |
| 20260831213516 | 19 | 215 | 1.6 | 0.0 | 0.00 | 0.00 | 0.00 | 87 | 1017.2 |
| 20260831213014 | 19 | 198 | 4.8 | 0.0 | 0.00 | 0.00 | 0.00 | 86 | 1017.2 |
| 20260831212515 | 20 | 224 | 9.7 | 0.0 | 0.00 | 0.00 | 0.00 | 86 | 1017.2 |
| 20260831212015 | 20 | 235 | 14.5 | 0.0 | 0.00 | 0.00 | 0.00 | 87 | 1017.2 |
| 20260831211525 | 20 | 243 | 19.3 | 0.0 | 0.00 | 0.00 | 0.00 | 87 | 1017.2 |
| 20260831211013 | 20 | 240 | 19.3 | 0.0 | 0.00 | 0.00 | 0.00 | 86 | 1017.2 |
| 20260831210513 | 20 | 254 | 20.9 | 0.0 | 0.00 | 0.00 | 0.00 | 85 | 1017.2 |
| 20260831210014 | 21 | 246 | 29.0 | 0.0 | 0.00 | 0.00 | 0.00 | 84 | 1017.1 |
| 20260831205513 | 21 | 244 | 30.6 | 0.0 | 0.00 | 0.00 | 0.00 | 83 | 1017.1 |
| 20260831205013 | 21 | 252 | 29.0 | 0.0 | 0.00 | 0.00 | 0.00 | 82 | 1017.0 |
| 20260831204513 | 21 | 258 | 17.7 | 0.0 | 0.00 | 0.00 | 0.00 | 82 | 1017.1 |
| 20260831204013 | 22 | 246 | 12.9 | 0.0 | 0.00 | 0.00 | 0.00 | 80 | 1017.0 |
| 20260831203513 | 22 | 240 | 12.9 | 0.0 | 0.00 | 0.00 | 0.00 | 79 | 1017.0 |
| 20260831203018 | 22 | 213 | 8.0 | 0.0 | 0.00 | 0.00 | 0.00 | 79 | 1016.8 |
| 20260831202511 | 22 | 221 | 3.2 | 0.0 | 0.00 | 0.00 | 0.00 | 76 | 1016.7 |
| 20260831202012 | 22 | 236 | 6.4 | 0.0 | 0.00 | 0.00 | 0.00 | 78 | 1016.7 |
| 20260831201511 | 22 | 252 | 8.0 | 0.0 | 0.00 | 0.00 | 0.00 | 77 | 1016.7 |